Date,TemperatureHighF,TemperatureAvgF,TemperatureLowF,DewpointHighF,DewpointAvgF,DewpointLowF,HumidityHigh,HumidityAvg,HumidityLow,PressureMaxIn,PressureMinIn,WindSpeedMaxMPH,WindSpeedAvgMPH,GustSpeedMaxMPH,PrecipitationSumIn
2013-1-1,23.2,15.7,9.9,17.7,12.3,6.6,100,86,76,30.25,30.08,7,0,7,0.03
2013-1-2,28.2,19.5,9.0,22.3,15.4,6.4,93,84,71,30.19,30.06,14,1,14,0.00
2013-1-3,34.6,25.5,19.6,26.8,21.7,17.4,94,86,69,30.35,30.19,9,0,9,0.02
2013-1-4,40.1,22.0,15.3,28.1,18.4,13.1,94,87,62,30.31,30.20,14,1,14,0.00
2013-1-18,60.5,50.1,33.1,35.2,33.0,27.6,81,53,37,30.16,29.87,11,5,27,0.00
2013-1-19,62.9,45.9,35.2,32.8,30.4,27.8,81,57,29,30.15,29.82,12,2,23,0.00
2013-1-20,38.4,25.4,16.4,28.4,13.0,6.7,74,59,44,30.34,30.14,15,2,15,0.00
2013-1-21,20.3,16.3,12.9,11.8,7.7,5.0,82,69,53,30.39,30.30,10,1,10,0.00
2013-1-22,30.7,19.9,11.3,12.8,8.0,3.6,77,60,46,30.32,30.17,11,1,11,0.00
2013-1-23,47.6,27.9,15.6,26.1,16.4,9.0,78,63,42,30.35,30.09,12,1,12,0.00
2013-1-24,24.6,18.6,8.7,13.3,6.1,1.2,74,59,42,30.40,30.08,15,3,15,0.00
2013-1-25,50.7,33.4,17.5,25.1,18.1,9.5,74,54,35,30.15,30.07,12,0,12,0.00
2013-1-26,57.4,42.6,29.8,28.4,25.4,21.4,72,52,31,30.16,29.93,16,2,16,0.00
2013-1-27,57.5,47.6,38.8,53.2,44.2,28.3,96,88,51,29.93,29.59,21,3,21,0.05
2013-1-28,75.9,59.5,45.2,61.3,51.3,41.9,93,76,46,29.71,29.45,26,4,26,0.00
2013-1-29,66.8,42.5,32.6,61.9,39.9,31.3,95,90,73,29.53,29.36,26,3,26,0.05
2013-1-30,32.6,24.7,15.4,31.2,20.8,11.7,96,85,72,29.88,29.41,25,5,25,0.01
2013-1-31,19.7,14.5,5.0,18.5,8.1,-0.7,96,76,59,30.41,29.86,23,3,25,0.00
2013-2-1,28.2,16.6,2.2,16.9,8.6,-2.2,84,71,59,30.41,30.06,14,1,14,0.00
2013-2-2,49.4,35.9,23.1,37.1,27.8,14.9,83,72,60,30.13,30.00,16,1,16,0.00
2013-2-3,50.8,40.2,27.4,30.1,26.1,20.7,86,59,35,30.18,29.71,18,2,18,0.00
2013-2-4,46.3,35.6,23.1,31.4,26.5,19.6,90,70,51,29.88,29.67,16,2,16,0.00
2013-2-5,59.5,38.5,22.7,35.7,27.6,20.3,93,69,37,29.98,29.79,18,1,18,0.00
2013-2-6,61.3,47.9,31.7,47.2,36.6,26.2,83,66,42,29.99,29.71,19,2,19,0.06
2013-2-7,51.5,43.3,30.1,45.4,37.9,26.0,94,82,65,30.11,29.71,19,3,19,0.29
2013-2-8,44.7,33.5,27.7,32.1,27.7,24.3,92,80,59,30.24,30.08,11,1,11,0.00
2013-2-9,52.1,38.6,28.2,40.0,32.7,26.1,94,80,57,30.10,29.59,21,4,22,0.00
2013-2-10,48.3,41.9,35.9,44.2,34.0,24.5,97,75,53,29.81,29.31,31,8,31,0.09
2013-2-11,45.8,35.7,27.6,26.9,23.1,19.1,79,61,41,30.07,29.81,15,2,16,0.00
2013-2-12,43.2,32.3,22.7,27.3,22.6,18.4,87,68,48,30.08,29.86,6,0,6,0.00
2013-2-13,55.4,37.1,23.3,30.7,24.7,20.3,90,64,36,29.86,29.70,21,2,21,0.00
2013-2-14,49.1,40.0,30.7,34.3,27.3,22.5,83,61,39,30.10,29.73,22,3,22,0.00
2013-2-15,37.9,28.4,16.5,26.6,17.8,9.7,89,66,39,30.30,30.09,24,3,24,0.00
2013-2-16,37.2,29.2,18.1,25.7,20.2,15.7,92,71,47,30.24,29.94,13,1,15,0.00
2013-2-17,59.9,43.1,25.0,36.5,27.5,17.2,74,55,38,29.95,29.49,21,3,27,0.00
2013-2-18,54.3,41.5,23.9,42.5,29.7,16.3,78,63,45,29.98,29.36,27,6,27,0.00
2013-2-19,34.9,25.0,18.5,16.3,9.9,2.2,80,56,26,30.28,29.98,19,3,19,0.00
2013-2-20,24.9,19.5,12.4,13.6,7.6,3.1,69,59,50,30.29,30.07,14,3,14,0.00
2013-2-21,23.1,21.1,18.9,21.3,16.3,13.3,94,82,66,30.09,29.71,18,7,18,0.00
2013-2-22,25.4,20.3,13.4,24.3,18.8,11.5,96,94,92,30.00,29.72,4,1,11,0.14
2013-2-23,33.1,20.1,6.2,32.1,18.7,3.7,98,94,89,30.00,29.84,3,0,11,0.04
2013-2-24,45.6,31.0,19.5,39.5,26.0,18.1,96,83,53,29.92,29.80,8,2,12,0.00
2013-2-25,35.9,33.4,29.9,30.8,27.9,24.8,93,80,75,29.86,29.64,9,6,19,0.00
2013-2-26,34.7,31.9,29.3,33.0,29.7,27.7,96,92,87,29.78,29.56,24,5,24,0.04
2013-2-27,40.7,32.6,26.9,28.8,26.4,24.1,94,79,58,29.99,29.76,21,5,21,0.01
2013-2-28,32.8,30.4,27.3,26.8,25.0,22.5,84,80,75,30.12,29.98,15,3,19,0.00
2013-3-1,31.2,27.1,25.0,22.9,20.5,18.7,82,76,65,30.25,30.11,17,3,17,0.00
2013-3-2,37.7,28.5,22.1,22.7,19.5,16.1,79,69,51,30.28,30.06,7,0,9,0.00
2013-3-3,46.2,35.7,25.3,31.7,26.5,20.4,82,70,56,30.06,29.58,15,3,15,0.00
2013-3-4,52.1,41.3,36.3,38.0,32.8,29.5,85,72,57,29.88,29.53,17,4,17,0.00
2013-3-5,36.4,31.2,24.7,31.7,20.1,15.5,86,64,51,30.28,29.88,26,7,28,0.00
2013-3-6,42.3,27.1,16.6,24.7,19.5,13.5,90,74,47,30.35,30.16,12,1,12,0.00
2013-3-7,53.9,37.1,23.8,35.1,27.0,19.7,85,69,42,30.17,29.99,17,5,17,0.00
2013-3-8,60.6,48.7,35.5,46.9,38.5,28.6,79,68,52,30.06,29.80,22,5,22,0.00
2013-3-9,54.5,51.7,47.0,45.8,43.4,41.2,95,74,65,29.81,29.62,20,4,20,0.85
2013-3-10,51.4,34.1,24.6,50.9,32.5,21.0,98,94,86,29.83,29.42,11,5,24,0.01
2013-3-11,40.0,28.6,22.0,23.4,20.2,17.9,87,72,41,29.92,29.80,7,3,19,0.00
2013-3-12,46.4,35.8,28.4,29.4,24.4,21.8,87,65,41,30.25,29.92,12,3,26,0.00
2013-3-13,45.6,32.8,19.9,24.8,21.4,16.1,92,65,38,30.39,30.19,10,0,10,0.00
2013-3-14,74.3,51.6,33.7,44.0,34.2,24.2,73,54,28,30.19,29.92,17,1,17,0.00
2013-3-15,84.0,62.5,42.7,48.0,40.9,35.7,78,50,22,29.95,29.49,16,1,16,0.00
2013-3-16,55.5,39.9,32.3,44.1,33.8,27.6,91,79,67,29.96,29.56,19,6,19,0.00
2013-3-17,38.8,32.8,29.4,32.3,29.4,26.5,94,87,74,29.96,29.65,15,5,17,0.02
2013-3-18,53.2,40.6,31.2,35.9,28.0,17.3,96,66,32,29.96,29.64,26,4,26,0.01
2013-3-19,42.9,33.6,27.2,40.3,27.2,16.1,93,78,56,30.15,29.95,10,0,10,0.16
2013-3-20,41.9,31.7,21.5,32.2,16.0,11.0,86,54,31,30.32,30.01,19,3,20,0.01
2013-3-21,30.8,27.2,25.1,25.2,19.8,12.6,92,74,54,30.02,29.79,16,4,18,0.00
2013-3-22,33.0,29.9,27.3,31.0,28.2,24.9,95,93,90,29.91,29.84,8,1,8,0.01
2013-3-23,36.2,32.0,28.4,31.2,29.1,26.7,96,89,71,29.95,29.79,21,4,22,0.03
2013-3-24,32.6,27.5,21.8,27.4,23.5,15.7,96,85,63,30.02,29.79,22,6,24,0.02
2013-3-25,34.4,27.2,19.5,25.3,21.1,14.6,88,78,65,30.27,30.00,17,4,25,0.00
2013-3-26,38.4,29.1,18.3,25.4,20.6,14.8,92,71,52,30.33,30.19,10,0,10,0.00
2013-3-27,52.9,38.7,26.0,33.4,27.6,20.9,82,66,40,30.21,30.07,20,3,20,0.00
2013-3-28,64.3,47.7,31.6,41.3,35.4,28.6,89,65,38,30.11,29.98,12,1,12,0.00
2013-3-29,70.4,55.1,40.3,47.6,41.6,37.0,90,64,31,30.08,29.92,15,2,15,0.00
2013-3-30,70.8,56.8,50.3,55.5,49.3,41.2,95,78,50,29.93,29.71,13,1,13,0.00
2013-3-31,64.1,54.5,45.9,45.8,38.9,29.8,90,59,31,29.86,29.79,13,2,19,0.00
2013-4-1,49.5,38.5,30.0,34.3,23.3,17.1,84,56,34,30.19,29.86,21,4,21,0.00
2013-4-2,52.2,38.5,26.0,25.4,21.4,17.6,73,52,31,30.24,30.13,12,1,15,0.00
2013-4-3,49.1,41.1,29.7,28.4,25.4,22.0,77,54,40,30.25,30.12,12,1,12,0.00
2013-4-4,64.7,48.2,30.9,36.1,30.2,23.1,79,52,31,30.13,29.93,11,0,12,0.00
2013-4-5,72.0,55.7,38.2,44.0,39.3,33.3,86,57,33,30.04,29.67,23,4,23,0.00
2013-4-6,76.4,63.8,55.2,50.7,45.2,41.4,67,52,31,29.68,29.51,21,4,21,0.00
2013-4-7,74.1,60.2,48.8,56.6,47.1,40.4,92,64,38,29.70,29.48,23,2,23,0.18
2013-4-8,74.2,62.3,52.1,64.2,58.1,49.8,100,87,68,29.56,29.49,12,2,17,0.01
2013-4-9,75.0,64.6,53.5,64.3,59.1,50.2,91,82,68,29.70,29.43,18,3,18,0.00
2013-4-10,53.5,0.0,0.0,0.0,0.0,0.0,0,0,100,29.78,29.50,0,0,0,0.00
2013-4-11,38.7,17.9,0.0,29.5,13.3,0.0,78,32,65,29.70,29.59,18,2,19,0.01
2013-4-12,53.9,27.2,0.0,35.2,18.4,0.0,77,31,47,29.90,29.67,18,2,18,0.00
2013-4-13,66.6,35.4,0.0,48.8,25.9,-4.7,80,32,46,29.92,29.49,20,2,20,0.00
2013-4-14,69.7,37.4,0.0,54.1,28.2,0.0,62,32,50,29.57,29.28,29,3,29,0.00
2013-4-15,63.2,0.0,0.0,0.0,0.0,0.0,0,0,100,29.86,29.56,5,0,5,0.00
2013-4-16,0.0,0.0,0.0,0.0,0.0,0.0,0,0,100,30.00,29.83,0,0,0,0.00
2013-4-17,0.0,0.0,0.0,0.0,0.0,0.0,0,0,100,29.92,29.46,0,0,0,0.00
2013-4-18,38.8,3.9,0.0,33.1,3.2,0.0,82,8,76,29.86,29.46,21,1,23,0.00
2013-4-19,51.5,29.1,0.0,31.3,17.1,0.0,64,27,37,29.98,29.82,22,3,22,0.00
2013-4-20,56.4,29.3,0.0,37.5,19.2,-11.6,56,28,43,30.10,29.95,19,4,19,0.00
2013-4-21,68.7,38.8,0.0,47.6,27.3,0.0,57,30,45,30.05,29.91,21,3,21,0.00
2013-4-22,64.0,0.0,0.0,0.0,0.0,0.0,0,0,100,29.95,29.75,3,0,3,0.00
2013-4-23,0.0,0.0,0.0,0.0,0.0,0.0,0,0,100,30.05,29.89,0,0,0,0.00
2013-4-24,57.4,31.0,0.0,33.6,18.4,-7.4,67,26,37,30.14,30.01,17,1,17,0.00
2013-4-25,71.7,39.0,0.0,41.2,22.8,0.0,61,22,29,30.17,29.94,17,2,17,0.00
2013-4-26,65.2,15.4,0.0,49.8,14.1,0.0,93,25,70,30.07,29.94,19,1,22,0.02
2013-4-27,60.2,30.4,0.0,51.5,27.0,-0.6,97,43,71,30.05,29.86,6,0,6,0.00
2013-4-28,78.3,43.4,0.0,59.2,34.0,0.0,89,35,49,29.87,29.58,18,1,18,0.00
2013-4-29,89.0,48.3,0.0,65.1,37.2,0.0,76,31,37,29.61,29.39,21,3,21,0.00
2013-4-30,85.4,47.1,0.0,64.3,34.8,0.0,58,28,45,29.60,29.42,20,5,22,0.00
2013-5-1,78.3,34.6,0.0,54.3,27.3,0.0,69,39,55,30.08,29.60,22,5,22,0.00
2013-5-2,50.1,0.0,0.0,0.0,0.0,0.0,0,0,100,30.21,30.05,11,0,11,0.00
2013-5-9,71.3,68.5,63.3,62.3,60.2,58.1,89,75,67,29.80,29.66,4,1,14,0.00
2013-5-10,68.6,65.2,57.6,58.1,54.6,48.6,82,69,52,29.91,29.79,5,2,17,0.00
2013-5-11,66.3,63.3,58.6,49.1,40.4,29.6,57,44,29,30.10,29.90,9,3,23,0.00
2013-5-12,67.6,61.5,55.7,42.8,34.3,27.9,48,36,29,30.13,29.97,3,0,9,0.00
2013-5-13,81.5,70.6,62.4,57.0,49.2,42.5,53,47,40,29.99,29.75,6,1,17,0.00
2013-5-14,95.9,83.6,77.1,59.4,55.0,50.7,49,39,24,29.74,29.57,7,2,24,0.00
2013-5-15,90.0,82.9,76.1,67.4,58.8,51.1,69,46,33,29.67,29.58,4,1,17,0.00
2013-5-16,81.3,63.8,0.0,65.3,52.6,0.0,80,53,53,29.69,29.60,11,0,11,0.00
2013-5-17,80.5,45.6,0.0,67.1,38.6,0.0,95,41,58,29.75,29.66,10,0,10,0.00
2013-5-18,83.3,47.9,0.0,73.4,42.8,0.0,80,45,70,29.74,29.52,16,1,16,0.00
2013-5-19,81.7,29.8,0.0,71.3,27.1,0.0,96,34,64,29.68,29.35,19,1,22,0.39
2013-5-20,83.3,68.8,55.9,64.8,58.2,53.8,96,72,40,29.58,29.45,18,1,18,0.00
2013-5-21,72.9,64.0,53.3,58.2,52.4,49.4,92,67,48,29.62,29.53,18,1,19,0.00
2013-5-22,68.6,59.4,51.0,55.2,51.2,47.4,90,75,58,29.82,29.59,18,2,18,0.00
2013-5-23,68.5,58.5,49.0,57.3,52.0,46.5,94,80,63,30.07,29.82,14,0,14,0.00
2013-5-24,73.7,62.8,50.6,57.4,53.1,48.9,96,73,50,30.15,29.93,17,2,17,0.00
2013-5-25,82.7,72.6,62.3,68.3,62.8,54.0,89,72,58,29.98,29.80,20,1,20,0.00
2013-5-30,76.4,70.0,61.6,65.9,64.0,61.0,98,82,70,29.54,29.45,2,1,10,0.74
2013-5-31,81.3,69.8,59.9,72.2,65.6,58.5,98,88,53,29.59,29.46,4,0,15,0.42
2013-6-1,69.5,63.7,55.8,67.7,55.4,49.6,94,74,65,29.86,29.55,17,2,18,0.00
2013-6-2,67.5,58.8,52.7,53.1,50.3,47.7,87,74,55,29.98,29.85,13,1,13,0.00
2013-6-3,75.0,61.9,47.4,61.3,54.0,45.8,98,77,55,29.92,29.70,15,1,15,0.00
2013-6-4,78.7,68.8,62.6,69.8,63.0,57.5,90,82,72,29.81,29.67,16,1,16,0.00
2013-6-5,70.6,64.3,60.1,63.5,61.5,58.1,98,91,76,29.84,29.75,9,0,13,0.22
2013-6-6,74.6,65.2,55.9,59.5,55.5,50.9,95,72,50,29.84,29.77,13,0,13,0.00
2013-6-7,75.9,65.6,55.1,59.0,54.4,50.9,89,69,46,29.87,29.75,9,0,9,0.00
2013-6-8,82.0,67.4,54.8,65.1,58.5,51.8,96,75,54,29.78,29.55,22,2,22,0.24
2013-6-9,79.4,65.8,62.1,63.0,61.1,55.1,98,87,44,29.70,29.61,10,0,10,0.31
2013-6-10,86.2,72.2,56.1,69.1,62.2,54.7,97,73,40,29.74,29.62,11,0,11,0.00
2013-6-11,94.4,81.7,70.6,71.3,68.2,63.7,92,67,38,29.70,29.56,17,2,19,0.00
2013-6-12,94.3,83.6,72.4,76.1,70.4,59.5,82,66,49,29.79,29.54,21,2,21,0.00
2013-6-13,84.5,71.8,59.0,68.3,61.2,54.3,87,70,50,29.90,29.78,13,0,13,0.00
2013-6-14,91.6,78.5,64.7,78.8,70.3,62.4,93,77,57,29.84,29.65,17,2,18,0.00
2013-6-15,84.9,77.4,67.6,75.1,71.1,65.5,94,81,61,29.77,29.69,11,1,18,0.00
2013-6-16,73.4,67.1,66.5,70.3,65.9,64.9,97,96,90,29.80,29.74,3,0,3,0.00
2013-6-17,84.0,73.8,67.9,74.6,69.8,67.0,98,88,67,29.85,29.72,5,0,16,0.82
2013-6-18,85.8,72.1,65.5,72.5,66.8,63.5,97,85,55,29.86,29.80,3,0,10,0.04
2013-6-19,85.9,74.3,63.1,73.3,66.6,62.2,98,79,51,29.86,29.75,14,1,14,0.00
2013-6-20,89.4,79.2,69.4,77.0,71.3,65.2,90,78,63,29.81,29.66,21,4,21,0.00
2013-6-21,90.8,82.2,75.5,77.9,73.5,69.5,90,76,60,29.76,29.67,20,2,22,0.00
2013-6-22,90.6,81.9,74.4,76.6,71.1,67.5,84,70,53,29.78,29.63,21,2,21,0.92
2013-6-23,88.0,78.2,69.2,78.0,71.1,66.8,97,79,60,29.76,29.63,19,2,19,0.04
2013-6-24,86.5,80.7,74.1,75.5,70.9,68.5,86,72,59,29.76,29.60,25,3,25,0.02
2013-6-25,86.9,78.8,70.8,75.7,72.0,68.7,97,80,66,29.71,29.50,25,3,25,0.07
2013-6-26,94.2,83.1,72.0,76.2,70.7,63.5,96,69,38,29.70,29.52,12,0,15,0.00
2013-6-27,82.0,76.1,70.3,77.8,70.4,66.2,97,83,72,29.83,29.66,9,0,9,0.15
2013-6-28,85.6,75.9,65.7,72.4,65.1,58.2,99,73,41,29.81,29.72,15,1,15,0.01
2013-6-29,82.9,72.9,61.9,63.5,58.7,54.4,86,63,40,29.75,29.67,24,3,25,0.00
2013-7-21,86.8,76.2,68.2,74.1,70.7,67.6,99,84,62,29.76,29.62,1,0,9,0.00
2013-7-22,93.6,80.7,69.2,77.0,71.9,68.2,99,77,46,29.68,29.58,3,0,17,0.00
2013-7-23,85.0,75.2,69.3,74.2,69.7,64.8,99,84,64,29.78,29.63,4,0,17,0.00
2013-7-24,87.2,74.4,61.7,64.8,62.0,58.6,91,68,42,29.89,29.75,2,0,10,0.00
2013-7-25,79.2,71.5,64.7,71.4,66.2,61.2,98,84,65,29.92,29.83,1,0,7,0.10
2013-7-26,85.5,74.2,64.8,73.5,65.7,54.4,99,77,52,29.92,29.82,3,0,14,0.05
2013-7-27,74.4,63.8,55.8,61.6,57.1,53.4,95,80,51,29.97,29.84,3,0,14,0.14
2013-7-28,74.8,65.1,56.9,59.5,56.0,52.8,93,74,50,29.91,29.86,7,0,9,0.00
2013-7-29,69.5,64.2,60.2,69.4,63.4,59.1,100,97,93,29.91,29.80,11,0,11,1.04
2013-7-30,77.3,72.2,69.0,73.8,70.8,69.0,100,95,85,29.91,29.81,6,0,6,0.01
2013-7-31,84.1,75.6,65.5,71.8,68.7,64.9,99,80,58,29.97,29.87,4,0,8,0.00
2013-8-1,87.9,76.8,66.0,73.7,68.6,63.9,99,78,48,29.94,29.75,9,0,10,0.00
2013-8-2,76.3,66.4,63.3,70.2,64.9,61.8,98,95,80,29.85,29.70,9,0,9,0.88
2013-8-4,76.8,72.7,70.6,71.7,70.2,69.4,98,92,82,29.88,29.84,7,0,7,0.65
2013-8-5,83.3,74.5,68.4,77.1,72.3,68.1,99,93,79,29.87,29.64,10,0,10,0.00
2013-8-6,87.8,78.8,71.6,78.5,74.7,71.1,100,88,67,29.70,29.60,16,0,16,0.01
2013-8-7,85.5,77.2,70.0,78.3,73.0,65.7,100,88,65,29.78,29.60,26,0,26,0.31
2013-8-8,72.3,69.5,66.8,68.8,66.4,64.2,94,90,83,29.85,29.73,6,0,6,0.01
2013-8-9,76.7,70.9,66.5,70.7,67.5,63.6,97,89,77,29.96,29.83,5,0,5,0.01
2013-8-10,82.3,72.4,63.8,69.2,65.0,62.3,98,79,56,30.04,29.91,7,0,7,0.00
2013-8-11,85.2,73.9,62.7,73.5,66.8,60.5,94,79,60,29.98,29.83,9,0,11,0.00
2013-8-12,83.5,73.5,64.5,73.1,68.5,63.0,98,85,65,29.88,29.77,13,0,20,0.19
2013-8-13,79.4,71.3,66.1,66.5,64.9,59.2,98,82,52,29.96,29.86,8,0,9,0.00
2013-8-14,77.9,68.9,60.2,67.2,62.2,58.2,94,80,60,30.03,29.91,2,0,11,0.00
2013-8-15,74.1,66.1,62.0,64.1,60.5,57.5,94,83,67,29.95,29.84,4,0,15,0.00
2013-8-16,75.3,67.6,59.9,64.1,60.4,57.3,91,78,61,30.00,29.90,3,0,10,0.00
2013-8-17,78.5,67.2,55.6,62.0,58.5,54.2,96,76,52,30.04,29.94,3,0,11,0.00
2013-8-18,81.7,69.3,57.1,66.3,61.5,55.6,97,78,54,30.01,29.89,3,0,13,0.00
2013-8-19,85.3,73.7,62.6,69.7,66.1,60.8,95,79,55,29.95,29.81,4,1,13,0.00
2013-8-20,89.0,76.9,67.6,71.3,67.9,64.9,92,75,54,29.87,29.78,13,1,13,0.00
2013-8-21,91.2,79.6,68.3,74.2,68.7,62.9,86,70,50,29.87,29.79,11,1,11,0.00
2013-8-22,90.7,78.8,69.4,73.7,70.8,67.2,93,78,54,29.93,29.82,8,0,8,0.00
2013-8-23,92.4,79.8,69.3,73.6,70.4,68.1,97,75,48,29.91,29.81,16,1,16,0.00
2013-8-24,92.3,81.2,72.0,74.9,71.5,68.3,90,74,53,29.93,29.84,17,2,17,0.00
2013-8-25,94.4,81.9,70.8,76.3,72.0,68.2,92,73,50,30.01,29.91,12,1,14,0.00
2013-8-26,96.6,83.6,71.8,73.8,71.8,69.7,94,70,45,29.96,29.85,14,1,14,0.00
2013-8-27,96.4,83.3,72.0,71.2,68.0,63.8,87,63,35,29.87,29.77,17,1,17,0.00
2013-8-28,89.2,75.0,67.0,73.4,68.2,65.2,95,80,56,29.86,29.80,11,0,11,0.00
2013-8-29,97.5,83.3,72.7,75.2,72.6,70.3,93,72,46,29.83,29.73,3,0,15,0.00
2013-8-30,101.9,86.6,72.3,73.6,69.5,65.5,87,60,32,29.77,29.62,3,1,11,0.00
2013-8-31,95.2,81.8,72.1,77.6,72.4,69.0,92,75,44,29.68,29.59,2,0,9,0.00
2013-9-1,85.7,76.0,67.1,73.6,68.7,62.2,97,79,53,29.81,29.54,5,1,18,0.46
2013-9-2,80.9,69.8,61.6,64.8,61.0,57.8,93,75,49,29.91,29.81,4,0,11,0.00
2013-9-4,88.0,73.2,58.8,64.4,61.1,56.7,94,69,38,30.01,29.89,2,0,10,0.00
2013-9-5,90.3,75.9,63.2,66.1,63.0,59.8,90,67,43,30.03,29.92,2,0,9,0.00
2013-9-6,94.0,79.1,66.1,69.7,66.1,62.0,87,67,44,29.95,29.78,5,1,16,0.00
2013-9-7,101.2,84.7,69.8,71.4,68.9,65.5,87,62,37,29.80,29.68,4,1,15,0.00
2013-9-8,104.4,87.7,72.8,70.8,68.4,65.7,83,56,29,29.71,29.60,3,1,14,0.00
2013-9-9,97.8,85.1,71.5,68.6,64.2,59.2,76,52,33,29.74,29.65,5,2,18,0.00
2013-9-10,97.2,83.4,72.4,69.3,65.2,63.3,74,56,37,29.87,29.73,10,1,18,0.00
2013-9-11,95.9,79.5,68.8,70.6,65.3,61.8,84,64,38,29.93,29.82,13,0,14,0.00
2013-9-12,86.8,74.7,66.8,72.1,64.8,52.2,98,74,47,29.99,29.88,10,0,22,0.02
2013-9-13,77.5,65.9,55.1,54.3,50.9,48.8,82,61,39,30.04,29.90,5,0,7,0.00
2013-9-14,59.9,54.9,51.7,50.7,49.0,47.3,86,81,71,29.94,29.91,5,0,5,0.00
2013-9-15,84.3,70.1,60.9,69.7,61.1,53.4,95,74,57,30.00,29.76,4,0,12,0.19
2013-9-16,60.9,59.1,58.3,59.6,58.1,57.5,99,97,95,30.10,29.99,3,0,9,0.37
2013-9-17,75.7,66.9,59.4,69.3,64.8,59.1,100,93,78,30.04,29.78,5,2,16,0.83
2013-9-18,90.8,78.5,66.7,72.8,69.2,65.9,98,75,53,29.81,29.60,14,2,21,0.00
2013-9-19,92.5,77.1,65.4,72.4,68.5,63.6,97,77,49,29.78,29.51,21,2,21,0.15
2013-9-20,71.7,62.5,54.7,63.5,51.8,47.6,94,70,44,29.92,29.76,14,1,14,0.00
2013-9-21,76.5,61.6,47.2,56.6,51.2,45.4,95,71,45,29.91,29.74,9,0,9,0.00
2013-9-22,78.0,64.2,51.9,58.4,53.1,49.8,94,70,43,29.81,29.67,17,1,17,0.00
2013-9-23,78.7,65.1,52.0,57.4,53.7,49.5,92,69,43,29.74,29.57,21,2,21,0.00
2013-9-24,71.0,64.4,57.4,62.2,57.8,53.9,91,80,69,29.72,29.57,14,1,14,0.00
2013-9-25,80.0,66.5,54.0,65.0,60.0,53.1,99,81,54,29.76,29.62,10,1,10,0.00
2013-9-26,88.7,73.3,59.0,63.5,61.1,57.6,96,69,40,29.70,29.61,22,2,22,0.00
2013-9-27,87.8,76.1,67.6,65.1,61.5,59.7,79,62,41,29.76,29.64,20,3,20,0.00
2013-9-28,73.8,63.8,53.6,65.6,55.1,47.5,96,75,48,29.93,29.59,19,2,21,0.11
2013-9-29,75.5,60.0,47.0,52.8,48.6,44.8,94,69,38,29.97,29.79,10,0,10,0.00
2013-9-30,79.7,63.5,49.0,57.1,51.7,46.7,97,69,40,29.80,29.65,11,0,12,0.00
2013-10-1,84.7,69.0,55.3,67.1,60.9,53.3,97,77,53,29.79,29.68,13,0,13,0.00
2013-10-2,84.8,70.7,61.3,71.3,65.5,60.4,100,85,53,29.83,29.68,13,1,13,0.00
2013-10-3,83.0,72.3,61.3,72.2,67.7,59.8,98,86,68,29.70,29.54,17,3,17,0.82
2013-10-4,88.5,74.7,58.8,72.8,67.4,46.7,96,79,52,29.77,29.50,20,3,20,0.02
2013-10-5,59.9,51.0,43.6,45.9,38.4,35.5,81,63,44,29.89,29.76,17,2,17,0.01
2013-10-6,59.4,50.3,41.6,46.4,41.5,35.0,93,72,58,29.89,29.74,18,1,18,0.01
2013-10-7,74.2,56.2,39.3,47.6,42.4,35.9,92,64,34,30.02,29.89,12,0,12,0.00
2013-10-8,75.0,61.7,49.9,51.6,47.4,44.0,83,61,38,29.94,29.82,18,2,18,0.00
2013-10-9,77.5,62.4,49.7,55.3,50.6,46.5,90,67,44,29.91,29.82,14,1,14,0.00
2013-10-10,79.4,63.9,51.8,60.7,53.8,48.0,88,71,50,29.88,29.68,18,1,18,0.00
2013-10-11,78.0,67.2,59.9,66.2,59.8,48.8,92,78,63,29.72,29.55,14,3,19,0.00
2013-10-12,69.5,57.2,46.1,48.8,42.4,37.5,89,60,34,30.13,29.72,13,0,13,0.00
2013-10-13,70.7,56.6,43.6,42.5,39.3,36.5,77,54,33,30.26,30.13,11,1,11,0.00
2013-10-14,68.0,57.9,52.5,61.6,48.9,37.3,97,74,52,30.14,29.65,23,3,23,0.02
2013-10-15,59.8,51.9,42.9,59.2,44.0,37.3,98,76,56,29.97,29.69,19,2,19,0.51
2013-10-16,57.6,48.9,40.1,43.5,39.6,37.2,90,71,48,29.99,29.85,13,1,13,0.06
2013-10-17,65.3,50.1,36.2,47.4,39.9,34.6,95,71,37,29.92,29.77,14,1,15,0.02
2013-10-18,44.6,37.7,34.4,38.6,35.6,32.8,97,92,80,30.03,29.91,11,0,11,0.02
2013-10-19,62.4,43.0,30.8,42.6,35.9,30.0,98,79,40,30.00,29.74,11,0,16,0.36
2013-10-20,68.5,53.7,41.0,46.9,42.1,38.0,90,67,39,29.82,29.65,11,0,11,0.00
2013-10-21,56.2,47.2,35.9,41.5,36.0,30.6,91,66,45,30.00,29.81,14,0,14,0.00
2013-10-22,61.4,48.6,36.8,46.0,40.0,33.4,89,73,49,30.00,29.79,22,1,22,0.00
2013-10-23,51.6,38.6,31.3,40.9,34.9,29.5,96,87,66,30.07,29.93,7,0,7,0.00
2013-10-24,50.3,41.5,34.5,36.7,31.4,26.4,92,69,43,30.33,30.06,13,0,13,0.00
2013-10-25,57.7,43.8,31.0,34.3,30.2,26.0,86,61,36,30.35,30.01,14,1,14,0.00
2013-10-26,60.1,47.9,38.8,42.8,36.3,30.0,92,66,40,30.06,29.94,16,0,16,0.00
2013-10-27,66.1,46.8,28.6,39.1,33.3,26.0,94,63,34,30.05,29.79,13,0,13,0.00
2013-10-28,63.4,49.8,39.0,53.0,43.3,32.7,95,78,63,30.00,29.84,11,0,11,0.00
2013-10-29,54.0,53.2,52.5,51.3,50.6,50.0,95,91,89,29.96,29.91,9,2,9,0.04
2013-11-6,44.1,37.6,30.5,37.5,34.0,29.2,96,87,70,30.22,29.84,7,1,25,0.03
2013-11-7,55.3,40.9,29.6,39.4,31.3,26.7,97,72,41,30.32,30.20,5,1,15,0.76
2013-11-8,67.7,50.6,34.9,39.5,34.2,28.8,82,57,28,30.21,29.70,9,2,29,0.00
2013-11-9,65.7,51.5,38.6,40.8,36.3,34.1,86,59,33,30.18,29.83,3,0,10,0.00
2013-11-10,56.9,48.3,36.1,40.9,36.0,31.6,84,63,47,30.28,30.08,3,1,10,0.00
2013-11-11,60.5,42.8,25.6,53.3,37.1,16.6,93,80,68,30.55,30.02,5,2,18,0.00
2013-11-12,34.1,24.2,14.0,16.4,12.4,9.4,89,62,37,30.79,30.57,3,0,18,0.00
2013-11-13,50.2,30.7,19.7,25.1,17.0,12.7,76,59,36,30.60,30.21,18,2,18,0.00
2013-11-26,37.6,28.0,18.2,25.5,19.0,9.8,89,70,40,30.34,30.09,7,2,24,0.01
2013-11-27,34.8,23.5,12.2,16.3,12.0,7.8,83,63,42,30.36,30.07,2,0,12,0.01
2013-11-28,37.8,29.0,22.4,24.2,19.7,16.1,83,68,54,30.40,30.05,3,1,13,0.00
2013-11-29,52.8,35.2,22.1,31.2,23.8,17.1,82,65,42,30.40,30.11,5,1,15,0.00
2013-11-30,54.0,42.9,33.5,38.7,33.2,26.6,85,69,55,30.11,29.96,2,0,14,0.00
2013-12-1,54.8,42.3,30.8,37.5,34.2,29.4,96,75,49,30.01,29.74,3,0,6,0.00
2013-12-2,57.8,44.3,36.7,43.4,39.2,33.8,94,83,56,29.74,29.45,4,0,13,0.00
2013-12-3,54.4,41.5,38.0,45.6,39.6,36.4,96,93,72,29.45,29.40,13,0,13,0.00
2013-12-15,51.4,32.6,14.6,32.1,23.9,12.5,93,73,46,30.14,29.88,4,0,10,0.00
2013-12-16,59.9,41.5,32.3,36.0,28.8,23.8,83,62,36,30.04,29.86,6,1,13,0.00
2013-12-17,46.8,35.4,25.2,32.7,25.6,21.3,93,70,44,30.20,30.04,4,1,16,0.00
2013-12-18,65.4,47.2,29.9,37.4,31.5,21.7,76,56,34,30.11,29.63,7,2,24,0.00
2013-12-19,55.1,48.2,32.5,48.7,41.7,30.2,91,79,63,29.63,29.49,5,1,17,0.00
2013-12-20,31.9,20.5,16.7,29.6,18.4,14.8,94,91,89,29.87,29.62,4,1,18,0.00
2013-12-21,23.4,21.0,19.7,21.2,18.2,17.0,91,89,87,29.85,29.64,5,1,9,0.00